1CO0 weather

Aurora Regional Medical Center Heliport
Aurora, Colorado, United States

Public forecast

Using degrees Fahrenheit for public forecast. Weather courtesy of forecast.io.

METAR (pilot weather report)

Closest report is Buckley Air Force Base, 3.8 nm (7.0 km) ENE. Retrieved 2019/04/26 00:58 UTC (35 minutes ago):

KBKF 260058Z 08011KT 10SM FEW080 15/M01 A3018 RMK AO2A SLP183 T01491008

TAF (pilot weather forecast)

Closest forecast is Buckley Air Force Base, 3.8 nm (7.0 km) ENE. Retrieved 2019/04/26 01:17 UTC (16 minutes ago):

TAF KBKF 260108Z 2601/2707 09009KT 9999 FEW080 QNH3014INS BECMG 2605/2606 16012KT 9999 FEW060 QNH3017INS TEMPO 2606/2610 18012G18KT BECMG 2611/2612 20009KT 9999 SKC QNH3003INS BECMG 2615/2616 VRB06KT 9999 SKC QNH3002INS BECMG 2700/2701 22015G25KT 9999 SCT030 BKN050 QNH2978INS TX22/2622Z TN08/2613Z